createdAt,value
2023-01-01T00:15:06.977Z,754.00
2023-01-01T00:23:06.748Z,759.00
2023-01-01T00:33:06.437Z,767.00
2023-01-01T00:39:06.259Z,775.00
2023-01-01T01:13:05.321Z,856.00
2023-01-01T01:28:04.912Z,890.00
2023-01-01T01:42:04.506Z,921.00
2023-01-01T01:43:04.479Z,921.00
2023-01-01T01:44:04.501Z,924.00
2023-01-01T01:45:04.414Z,928.00
2023-01-01T01:46:04.445Z,930.00
2023-01-01T01:47:04.368Z,932.00
2023-01-01T01:48:04.329Z,932.00
2023-01-01T01:49:04.319Z,934.00
2023-01-01T01:50:04.275Z,935.00
2023-01-01T01:51:04.258Z,940.00
2023-01-01T01:52:04.225Z,947.00
2023-01-01T01:53:04.224Z,950.00
2023-01-01T01:54:04.181Z,952.00
2023-01-01T01:55:04.161Z,955.00
2023-01-01T01:56:04.165Z,960.00
2023-01-01T01:57:04.090Z,960.00
2023-01-01T01:58:04.053Z,963.00
2023-01-01T01:59:04.028Z,968.00
2023-01-01T02:00:10.644Z,967.00
2023-01-01T02:01:05.099Z,970.00
2023-01-01T03:23:18.931Z,1147.00
2023-01-01T04:08:17.771Z,1183.00
2023-01-01T04:31:17.653Z,1188.00
2023-01-01T05:32:19.362Z,1175.00
2023-01-01T05:34:19.445Z,1172.00
2023-01-01T05:50:18.906Z,1155.00
2023-01-01T05:54:19.023Z,1157.00
2023-01-01T05:55:19.023Z,1152.00
2023-01-01T05:56:19.072Z,1146.00
2023-01-01T05:57:19.108Z,1148.00
2023-01-01T05:58:19.084Z,1148.00
2023-01-01T05:59:19.142Z,1147.00
2023-01-01T06:00:19.160Z,1146.00
2023-01-01T06:01:19.237Z,1145.00
2023-01-01T06:02:19.219Z,1143.00
2023-01-01T06:03:19.247Z,1140.00
2023-01-01T06:04:19.378Z,1137.00
2023-01-01T06:05:19.278Z,1135.00
2023-01-01T06:06:19.330Z,1137.00
2023-01-01T06:07:19.353Z,1138.00
2023-01-01T06:08:19.372Z,1137.00
2023-01-01T06:09:19.382Z,1138.00
2023-01-01T06:10:19.320Z,1136.00
2023-01-01T06:11:19.271Z,1135.00
2023-01-01T06:12:19.241Z,1135.00
2023-01-01T06:13:19.225Z,1134.00
2023-01-01T06:14:19.194Z,1135.00
2023-01-01T06:15:19.174Z,1134.00
2023-01-01T06:16:19.148Z,1135.00
2023-01-01T06:17:19.100Z,1131.00
2023-01-01T06:18:19.051Z,1127.00
2023-01-01T06:19:19.036Z,1125.00
2023-01-01T06:20:19.014Z,1121.00
2023-01-01T06:21:18.977Z,1118.00
2023-01-01T07:24:17.009Z,1016.00
2023-01-01T07:25:16.962Z,1017.00
2023-01-01T07:26:16.941Z,1017.00
2023-01-01T07:27:16.905Z,1021.00
2023-01-01T07:28:16.881Z,1019.00
2023-01-01T07:29:16.880Z,1017.00
2023-01-01T07:30:16.824Z,1014.00
2023-01-01T07:31:16.821Z,1014.00
2023-01-01T07:32:16.747Z,1011.00
2023-01-01T07:33:16.720Z,1009.00
2023-01-01T08:00:15.999Z,959.00
2023-01-01T09:58:11.886Z,790.00
2023-01-01T10:59:09.092Z,729.00
2023-01-01T11:00:09.024Z,728.00
2023-01-01T11:01:09.068Z,727.00
2023-01-01T15:58:00.356Z,568.00
2023-01-01T15:59:05.339Z,565.00
2023-01-01T16:00:01.309Z,564.00
2023-01-01T16:01:00.257Z,562.00
2023-01-01T16:02:00.416Z,562.00
2023-01-01T16:04:00.126Z,567.00
2023-01-01T16:05:00.048Z,566.00
2023-01-01T16:06:00.038Z,566.00
2023-01-01T16:06:59.984Z,566.00
2023-01-01T16:07:59.939Z,564.00
2023-01-01T16:08:59.885Z,563.00
2023-01-01T16:09:59.843Z,563.00
2023-01-01T16:10:59.829Z,565.00
2023-01-01T16:11:59.765Z,564.00
2023-01-01T16:12:59.729Z,564.00
2023-01-01T16:13:59.683Z,564.00
2023-01-01T16:14:59.637Z,562.00
2023-01-01T16:15:59.602Z,565.00
2023-01-01T16:16:59.582Z,565.00
2023-01-01T16:17:59.514Z,564.00
2023-01-01T16:18:59.475Z,564.00
2023-01-01T16:19:59.445Z,564.00
2023-01-01T16:20:59.399Z,565.00
2023-01-01T16:21:59.389Z,565.00
2023-01-01T16:22:59.336Z,563.00
2023-01-01T16:23:59.289Z,563.00
2023-01-01T16:24:59.275Z,563.00
2023-01-01T16:25:59.234Z,565.00
2023-01-01T16:26:59.199Z,566.00
2023-01-01T16:27:59.163Z,565.00
2023-01-01T16:28:59.135Z,564.00
2023-01-01T16:29:59.075Z,562.00
2023-01-01T16:30:59.072Z,560.00
2023-01-01T16:31:59.017Z,559.00
2023-01-01T16:35:58.964Z,562.00
2023-01-01T20:02:51.615Z,516.00
2023-01-01T20:59:49.445Z,506.00
2023-01-01T21:02:49.377Z,504.00
2023-01-01T21:05:49.205Z,502.00
2023-01-01T21:06:49.164Z,502.00
2023-01-01T21:08:49.098Z,506.00
2023-01-01T21:10:49.027Z,507.00
2023-01-01T21:11:49.016Z,504.00
2023-01-01T21:12:48.978Z,503.00
2023-01-01T23:34:44.377Z,486.00
2023-01-01T23:35:44.335Z,487.00
2023-01-01T23:36:44.293Z,489.00
2023-01-01T23:37:44.290Z,486.00
2023-01-01T23:38:44.240Z,488.00
2023-01-01T23:39:44.198Z,489.00
2023-01-01T23:40:44.188Z,490.00
2023-01-01T23:41:44.151Z,490.00
2023-01-01T23:42:44.121Z,488.00
2023-01-01T23:43:44.243Z,487.00
2023-01-01T23:44:44.044Z,485.00
2023-01-01T23:45:44.010Z,485.00
2023-01-01T23:46:44.036Z,484.00
2023-01-01T23:47:43.968Z,483.00
2023-01-01T23:48:43.918Z,484.00
2023-01-01T23:49:43.894Z,484.00
2023-01-01T23:50:43.890Z,482.00
2023-01-01T23:51:43.812Z,485.00
2023-01-01T23:52:43.800Z,486.00
2023-01-01T23:53:43.772Z,487.00
2023-01-01T23:54:43.716Z,487.00
2023-01-01T23:55:43.690Z,486.00
2023-01-01T23:56:43.648Z,484.00
2023-01-01T23:57:43.656Z,483.00
2023-01-01T23:58:43.617Z,482.00
2023-01-01T23:59:43.572Z,479.00
